sensor_id;sensor_type;location;lat;lon;timestamp;P1;durP1;ratioP1;P2;durP2;ratioP2
71464;SDS011;59274;49.874;9.154;2023-09-07T00:01:45;4.30;;;2.00;;
71464;SDS011;59274;49.874;9.154;2023-09-07T00:04:10;7.10;;;2.50;;
71464;SDS011;59274;49.874;9.154;2023-09-07T00:06:38;4.63;;;2.30;;
71464;SDS011;59274;49.874;9.154;2023-09-07T00:09:04;7.73;;;2.40;;
71464;SDS011;59274;49.874;9.154;2023-09-07T00:11:31;5.68;;;2.60;;
71464;SDS011;59274;49.874;9.154;2023-09-07T00:13:57;6.47;;;2.80;;
71464;SDS011;59274;49.874;9.154;2023-09-07T00:16:24;5.88;;;2.72;;
71464;SDS011;59274;49.874;9.154;2023-09-07T00:18:50;5.90;;;2.93;;
71464;SDS011;59274;49.874;9.154;2023-09-07T00:21:15;5.97;;;2.72;;
71464;SDS011;59274;49.874;9.154;2023-09-07T00:23:41;5.90;;;2.90;;
71464;SDS011;59274;49.874;9.154;2023-09-07T00:26:07;6.50;;;3.05;;
71464;SDS011;59274;49.874;9.154;2023-09-07T00:28:33;5.63;;;2.80;;
71464;SDS011;59274;49.874;9.154;2023-09-07T00:30:58;5.13;;;2.63;;
71464;SDS011;59274;49.874;9.154;2023-09-07T00:33:23;5.67;;;2.60;;
71464;SDS011;59274;49.874;9.154;2023-09-07T00:35:49;6.10;;;2.77;;
71464;SDS011;59274;49.874;9.154;2023-09-07T00:38:14;6.00;;;2.37;;
71464;SDS011;59274;49.874;9.154;2023-09-07T00:40:42;6.93;;;2.90;;
71464;SDS011;59274;49.874;9.154;2023-09-07T00:43:10;6.05;;;2.80;;
71464;SDS011;59274;49.874;9.154;2023-09-07T00:45:35;8.13;;;2.60;;
71464;SDS011;59274;49.874;9.154;2023-09-07T00:48:01;8.70;;;3.00;;
71464;SDS011;59274;49.874;9.154;2023-09-07T00:50:27;5.63;;;2.90;;
71464;SDS011;59274;49.874;9.154;2023-09-07T00:52:52;7.70;;;2.97;;
71464;SDS011;59274;49.874;9.154;2023-09-07T00:55:19;5.68;;;2.92;;
71464;SDS011;59274;49.874;9.154;2023-09-07T00:57:45;5.27;;;2.67;;
71464;SDS011;59274;49.874;9.154;2023-09-07T01:00:10;5.33;;;2.77;;
71464;SDS011;59274;49.874;9.154;2023-09-07T01:02:37;7.13;;;3.20;;
71464;SDS011;59274;49.874;9.154;2023-09-07T01:05:02;6.90;;;2.83;;
71464;SDS011;59274;49.874;9.154;2023-09-07T01:07:40;5.45;;;2.83;;
71464;SDS011;59274;49.874;9.154;2023-09-07T01:10:08;5.57;;;2.85;;
71464;SDS011;59274;49.874;9.154;2023-09-07T01:12:34;7.43;;;2.88;;
71464;SDS011;59274;49.874;9.154;2023-09-07T01:15:00;4.77;;;2.60;;
71464;SDS011;59274;49.874;9.154;2023-09-07T01:17:25;6.03;;;2.50;;
71464;SDS011;59274;49.874;9.154;2023-09-07T01:19:52;5.75;;;2.92;;
71464;SDS011;59274;49.874;9.154;2023-09-07T01:22:19;7.18;;;3.65;;
71464;SDS011;59274;49.874;9.154;2023-09-07T01:24:47;7.27;;;2.77;;
71464;SDS011;59274;49.874;9.154;2023-09-07T01:27:14;8.90;;;3.28;;
71464;SDS011;59274;49.874;9.154;2023-09-07T01:29:39;7.05;;;3.10;;
71464;SDS011;59274;49.874;9.154;2023-09-07T01:32:05;8.30;;;3.67;;
71464;SDS011;59274;49.874;9.154;2023-09-07T01:34:31;7.22;;;3.38;;
71464;SDS011;59274;49.874;9.154;2023-09-07T01:36:57;8.93;;;3.20;;
71464;SDS011;59274;49.874;9.154;2023-09-07T01:39:22;7.03;;;3.33;;
71464;SDS011;59274;49.874;9.154;2023-09-07T01:41:47;7.03;;;2.80;;
71464;SDS011;59274;49.874;9.154;2023-09-07T01:44:13;9.77;;;3.50;;
71464;SDS011;59274;49.874;9.154;2023-09-07T01:46:38;5.63;;;3.00;;
71464;SDS011;59274;49.874;9.154;2023-09-07T01:49:04;5.83;;;2.87;;
71464;SDS011;59274;49.874;9.154;2023-09-07T01:51:29;5.78;;;2.83;;
71464;SDS011;59274;49.874;9.154;2023-09-07T01:53:55;5.67;;;2.70;;
71464;SDS011;59274;49.874;9.154;2023-09-07T01:56:20;9.77;;;3.33;;
71464;SDS011;59274;49.874;9.154;2023-09-07T01:58:46;8.68;;;3.33;;
71464;SDS011;59274;49.874;9.154;2023-09-07T02:01:26;7.57;;;2.67;;
71464;SDS011;59274;49.874;9.154;2023-09-07T02:03:54;7.40;;;3.10;;
71464;SDS011;59274;49.874;9.154;2023-09-07T02:06:20;6.40;;;3.17;;
71464;SDS011;59274;49.874;9.154;2023-09-07T02:08:45;7.00;;;3.20;;
71464;SDS011;59274;49.874;9.154;2023-09-07T02:11:11;6.57;;;3.63;;
71464;SDS011;59274;49.874;9.154;2023-09-07T02:13:37;6.07;;;2.90;;
71464;SDS011;59274;49.874;9.154;2023-09-07T02:16:03;6.70;;;3.03;;
71464;SDS011;59274;49.874;9.154;2023-09-07T02:18:32;6.32;;;3.15;;
71464;SDS011;59274;49.874;9.154;2023-09-07T02:21:04;5.22;;;2.47;;
71464;SDS011;59274;49.874;9.154;2023-09-07T02:23:31;5.63;;;3.17;;
71464;SDS011;59274;49.874;9.154;2023-09-07T02:25:57;5.30;;;3.10;;
71464;SDS011;59274;49.874;9.154;2023-09-07T02:28:23;8.27;;;3.13;;
71464;SDS011;59274;49.874;9.154;2023-09-07T02:30:50;8.02;;;3.40;;
71464;SDS011;59274;49.874;9.154;2023-09-07T02:33:15;7.63;;;3.10;;
71464;SDS011;59274;49.874;9.154;2023-09-07T02:35:41;8.73;;;3.53;;
71464;SDS011;59274;49.874;9.154;2023-09-07T02:38:06;7.60;;;2.90;;
71464;SDS011;59274;49.874;9.154;2023-09-07T02:40:32;5.73;;;3.07;;
71464;SDS011;59274;49.874;9.154;2023-09-07T02:42:57;10.33;;;3.60;;
71464;SDS011;59274;49.874;9.154;2023-09-07T02:45:22;6.88;;;3.10;;
71464;SDS011;59274;49.874;9.154;2023-09-07T02:47:48;10.53;;;3.67;;
71464;SDS011;59274;49.874;9.154;2023-09-07T02:50:15;5.05;;;2.85;;
71464;SDS011;59274;49.874;9.154;2023-09-07T02:52:42;6.05;;;2.85;;
71464;SDS011;59274;49.874;9.154;2023-09-07T02:55:08;6.07;;;2.73;;
71464;SDS011;59274;49.874;9.154;2023-09-07T02:57:34;6.15;;;2.70;;
71464;SDS011;59274;49.874;9.154;2023-09-07T03:00:00;6.63;;;3.07;;
71464;SDS011;59274;49.874;9.154;2023-09-07T03:02:27;6.20;;;3.17;;
71464;SDS011;59274;49.874;9.154;2023-09-07T03:04:53;6.60;;;2.67;;
71464;SDS011;59274;49.874;9.154;2023-09-07T03:07:19;6.45;;;3.13;;
71464;SDS011;59274;49.874;9.154;2023-09-07T03:09:45;7.60;;;3.43;;
71464;SDS011;59274;49.874;9.154;2023-09-07T03:12:10;8.57;;;3.17;;
71464;SDS011;59274;49.874;9.154;2023-09-07T03:14:35;6.77;;;2.80;;
71464;SDS011;59274;49.874;9.154;2023-09-07T03:17:01;6.87;;;2.73;;
71464;SDS011;59274;49.874;9.154;2023-09-07T03:19:28;5.97;;;2.92;;
71464;SDS011;59274;49.874;9.154;2023-09-07T03:21:54;5.20;;;2.73;;
71464;SDS011;59274;49.874;9.154;2023-09-07T03:24:19;6.03;;;2.93;;
71464;SDS011;59274;49.874;9.154;2023-09-07T03:26:45;6.95;;;3.05;;
71464;SDS011;59274;49.874;9.154;2023-09-07T03:29:11;5.73;;;2.60;;
71464;SDS011;59274;49.874;9.154;2023-09-07T03:31:36;5.70;;;2.80;;
71464;SDS011;59274;49.874;9.154;2023-09-07T03:34:02;5.47;;;2.63;;
71464;SDS011;59274;49.874;9.154;2023-09-07T03:36:27;6.00;;;3.00;;
71464;SDS011;59274;49.874;9.154;2023-09-07T03:38:53;7.75;;;3.05;;
71464;SDS011;59274;49.874;9.154;2023-09-07T03:41:18;5.32;;;2.70;;
71464;SDS011;59274;49.874;9.154;2023-09-07T03:43:46;6.53;;;3.13;;
71464;SDS011;59274;49.874;9.154;2023-09-07T03:46:12;4.88;;;2.90;;
71464;SDS011;59274;49.874;9.154;2023-09-07T03:48:40;6.07;;;2.85;;
71464;SDS011;59274;49.874;9.154;2023-09-07T03:51:06;7.93;;;2.97;;
71464;SDS011;59274;49.874;9.154;2023-09-07T03:53:32;5.80;;;2.90;;
71464;SDS011;59274;49.874;9.154;2023-09-07T03:55:57;6.75;;;2.83;;
71464;SDS011;59274;49.874;9.154;2023-09-07T03:58:23;6.37;;;3.17;;
71464;SDS011;59274;49.874;9.154;2023-09-07T04:00:49;6.27;;;3.00;;
71464;SDS011;59274;49.874;9.154;2023-09-07T04:03:14;6.43;;;3.15;;
71464;SDS011;59274;49.874;9.154;2023-09-07T04:05:40;6.30;;;3.43;;
71464;SDS011;59274;49.874;9.154;2023-09-07T04:08:06;5.82;;;2.85;;
71464;SDS011;59274;49.874;9.154;2023-09-07T04:10:32;6.55;;;2.88;;
71464;SDS011;59274;49.874;9.154;2023-09-07T04:12:58;5.10;;;2.78;;
71464;SDS011;59274;49.874;9.154;2023-09-07T04:15:23;6.43;;;2.93;;
71464;SDS011;59274;49.874;9.154;2023-09-07T04:17:50;7.05;;;3.15;;
71464;SDS011;59274;49.874;9.154;2023-09-07T04:20:16;5.82;;;2.90;;
71464;SDS011;59274;49.874;9.154;2023-09-07T04:22:42;5.17;;;2.37;;
71464;SDS011;59274;49.874;9.154;2023-09-07T04:25:07;5.40;;;2.70;;
71464;SDS011;59274;49.874;9.154;2023-09-07T04:27:33;5.25;;;2.83;;
71464;SDS011;59274;49.874;9.154;2023-09-07T04:29:59;7.13;;;3.40;;
71464;SDS011;59274;49.874;9.154;2023-09-07T04:32:25;5.10;;;2.77;;
71464;SDS011;59274;49.874;9.154;2023-09-07T04:34:56;4.93;;;2.47;;
71464;SDS011;59274;49.874;9.154;2023-09-07T04:37:22;5.35;;;2.55;;
71464;SDS011;59274;49.874;9.154;2023-09-07T04:39:50;5.50;;;2.50;;
71464;SDS011;59274;49.874;9.154;2023-09-07T04:42:17;7.07;;;2.97;;
71464;SDS011;59274;49.874;9.154;2023-09-07T04:44:43;6.50;;;2.90;;
71464;SDS011;59274;49.874;9.154;2023-09-07T04:47:08;6.30;;;3.17;;
71464;SDS011;59274;49.874;9.154;2023-09-07T04:49:34;4.67;;;2.50;;
71464;SDS011;59274;49.874;9.154;2023-09-07T04:51:59;6.88;;;2.85;;
71464;SDS011;59274;49.874;9.154;2023-09-07T04:54:25;5.47;;;3.00;;
71464;SDS011;59274;49.874;9.154;2023-09-07T04:56:50;6.30;;;2.87;;
71464;SDS011;59274;49.874;9.154;2023-09-07T04:59:15;5.27;;;2.60;;
71464;SDS011;59274;49.874;9.154;2023-09-07T05:01:41;7.87;;;3.13;;
71464;SDS011;59274;49.874;9.154;2023-09-07T05:04:06;5.63;;;3.00;;
71464;SDS011;59274;49.874;9.154;2023-09-07T05:06:32;6.67;;;3.33;;
71464;SDS011;59274;49.874;9.154;2023-09-07T05:09:02;5.43;;;2.72;;
71464;SDS011;59274;49.874;9.154;2023-09-07T05:11:28;6.90;;;3.50;;
71464;SDS011;59274;49.874;9.154;2023-09-07T05:13:53;9.60;;;3.33;;
71464;SDS011;59274;49.874;9.154;2023-09-07T05:16:19;6.40;;;2.97;;
71464;SDS011;59274;49.874;9.154;2023-09-07T05:18:44;13.97;;;3.50;;
71464;SDS011;59274;49.874;9.154;2023-09-07T05:21:13;7.60;;;2.88;;
71464;SDS011;59274;49.874;9.154;2023-09-07T05:23:39;8.82;;;3.17;;
71464;SDS011;59274;49.874;9.154;2023-09-07T05:26:05;6.70;;;2.97;;
71464;SDS011;59274;49.874;9.154;2023-09-07T05:28:31;10.90;;;3.23;;
71464;SDS011;59274;49.874;9.154;2023-09-07T05:30:56;6.50;;;2.90;;
71464;SDS011;59274;49.874;9.154;2023-09-07T05:33:21;6.18;;;3.38;;
71464;SDS011;59274;49.874;9.154;2023-09-07T05:35:47;5.80;;;2.87;;
71464;SDS011;59274;49.874;9.154;2023-09-07T05:38:12;6.87;;;3.20;;
71464;SDS011;59274;49.874;9.154;2023-09-07T05:40:39;6.57;;;3.63;;
71464;SDS011;59274;49.874;9.154;2023-09-07T05:43:05;6.90;;;3.00;;
71464;SDS011;59274;49.874;9.154;2023-09-07T05:45:34;8.00;;;3.85;;
71464;SDS011;59274;49.874;9.154;2023-09-07T05:48:02;8.68;;;3.38;;
71464;SDS011;59274;49.874;9.154;2023-09-07T05:50:28;6.38;;;2.92;;
71464;SDS011;59274;49.874;9.154;2023-09-07T05:52:53;6.53;;;2.97;;
71464;SDS011;59274;49.874;9.154;2023-09-07T05:55:19;7.07;;;3.40;;
71464;SDS011;59274;49.874;9.154;2023-09-07T05:57:44;10.00;;;3.72;;
71464;SDS011;59274;49.874;9.154;2023-09-07T06:00:10;9.40;;;2.83;;
71464;SDS011;59274;49.874;9.154;2023-09-07T06:02:36;11.10;;;3.90;;
71464;SDS011;59274;49.874;9.154;2023-09-07T06:05:02;6.53;;;3.03;;
71464;SDS011;59274;49.874;9.154;2023-09-07T06:07:27;9.85;;;3.70;;
71464;SDS011;59274;49.874;9.154;2023-09-07T06:09:53;6.00;;;3.00;;
71464;SDS011;59274;49.874;9.154;2023-09-07T06:12:18;8.47;;;3.77;;
71464;SDS011;59274;49.874;9.154;2023-09-07T06:14:45;6.43;;;3.28;;
71464;SDS011;59274;49.874;9.154;2023-09-07T06:17:11;7.32;;;3.03;;
71464;SDS011;59274;49.874;9.154;2023-09-07T06:19:38;9.30;;;3.88;;
71464;SDS011;59274;49.874;9.154;2023-09-07T06:22:03;6.27;;;3.20;;
71464;SDS011;59274;49.874;9.154;2023-09-07T06:24:29;7.65;;;3.45;;
71464;SDS011;59274;49.874;9.154;2023-09-07T06:26:54;6.70;;;3.17;;
71464;SDS011;59274;49.874;9.154;2023-09-07T06:29:20;7.00;;;3.27;;
71464;SDS011;59274;49.874;9.154;2023-09-07T06:31:45;7.27;;;3.10;;
71464;SDS011;59274;49.874;9.154;2023-09-07T06:34:10;6.67;;;3.47;;
71464;SDS011;59274;49.874;9.154;2023-09-07T06:36:36;8.10;;;3.65;;
71464;SDS011;59274;49.874;9.154;2023-09-07T06:39:01;7.83;;;3.40;;
71464;SDS011;59274;49.874;9.154;2023-09-07T06:41:27;9.37;;;3.53;;
71464;SDS011;59274;49.874;9.154;2023-09-07T06:43:53;9.85;;;4.32;;
71464;SDS011;59274;49.874;9.154;2023-09-07T06:46:18;9.03;;;3.53;;
71464;SDS011;59274;49.874;9.154;2023-09-07T06:48:43;7.93;;;3.97;;
71464;SDS011;59274;49.874;9.154;2023-09-07T06:51:10;10.77;;;3.65;;
71464;SDS011;59274;49.874;9.154;2023-09-07T06:53:35;7.23;;;3.20;;
71464;SDS011;59274;49.874;9.154;2023-09-07T06:56:01;10.15;;;3.45;;
71464;SDS011;59274;49.874;9.154;2023-09-07T06:58:28;6.85;;;3.10;;
71464;SDS011;59274;49.874;9.154;2023-09-07T07:00:57;7.45;;;3.00;;
71464;SDS011;59274;49.874;9.154;2023-09-07T07:03:26;7.15;;;3.85;;
71464;SDS011;59274;49.874;9.154;2023-09-07T07:05:52;8.02;;;3.33;;
71464;SDS011;59274;49.874;9.154;2023-09-07T07:08:17;8.27;;;3.80;;
71464;SDS011;59274;49.874;9.154;2023-09-07T07:10:43;6.53;;;3.37;;
71464;SDS011;59274;49.874;9.154;2023-09-07T07:13:08;7.28;;;3.30;;
71464;SDS011;59274;49.874;9.154;2023-09-07T07:15:34;6.43;;;3.17;;
71464;SDS011;59274;49.874;9.154;2023-09-07T07:18:00;8.48;;;3.70;;
71464;SDS011;59274;49.874;9.154;2023-09-07T07:20:26;6.70;;;3.38;;
71464;SDS011;59274;49.874;9.154;2023-09-07T07:22:52;10.82;;;3.58;;
71464;SDS011;59274;49.874;9.154;2023-09-07T07:25:17;9.63;;;3.17;;
71464;SDS011;59274;49.874;9.154;2023-09-07T07:27:43;8.63;;;2.93;;
71464;SDS011;59274;49.874;9.154;2023-09-07T07:30:08;7.13;;;3.57;;
71464;SDS011;59274;49.874;9.154;2023-09-07T07:32:34;8.57;;;3.25;;
71464;SDS011;59274;49.874;9.154;2023-09-07T07:34:59;9.53;;;3.53;;
71464;SDS011;59274;49.874;9.154;2023-09-07T07:37:28;8.77;;;3.38;;
71464;SDS011;59274;49.874;9.154;2023-09-07T07:39:54;8.40;;;3.70;;
71464;SDS011;59274;49.874;9.154;2023-09-07T07:42:19;7.38;;;3.00;;
71464;SDS011;59274;49.874;9.154;2023-09-07T07:44:45;5.87;;;2.63;;
71464;SDS011;59274;49.874;9.154;2023-09-07T07:47:11;5.55;;;2.95;;
71464;SDS011;59274;49.874;9.154;2023-09-07T07:49:36;6.03;;;3.07;;
71464;SDS011;59274;49.874;9.154;2023-09-07T07:52:02;5.83;;;3.07;;
71464;SDS011;59274;49.874;9.154;2023-09-07T07:54:27;9.32;;;3.47;;
71464;SDS011;59274;49.874;9.154;2023-09-07T07:56:54;7.73;;;3.10;;
71464;SDS011;59274;49.874;9.154;2023-09-07T07:59:19;10.38;;;3.30;;
71464;SDS011;59274;49.874;9.154;2023-09-07T08:01:45;7.67;;;3.03;;
71464;SDS011;59274;49.874;9.154;2023-09-07T08:04:10;6.83;;;3.33;;
71464;SDS011;59274;49.874;9.154;2023-09-07T08:06:36;6.97;;;2.63;;
71464;SDS011;59274;49.874;9.154;2023-09-07T08:09:02;6.38;;;3.20;;
71464;SDS011;59274;49.874;9.154;2023-09-07T08:11:28;10.40;;;3.10;;
71464;SDS011;59274;49.874;9.154;2023-09-07T08:13:53;6.57;;;2.97;;
71464;SDS011;59274;49.874;9.154;2023-09-07T08:16:19;7.20;;;3.00;;
71464;SDS011;59274;49.874;9.154;2023-09-07T08:18:44;10.57;;;3.10;;
71464;SDS011;59274;49.874;9.154;2023-09-07T08:21:10;6.27;;;3.47;;
71464;SDS011;59274;49.874;9.154;2023-09-07T08:23:35;6.28;;;3.03;;
71464;SDS011;59274;49.874;9.154;2023-09-07T08:26:01;6.10;;;2.87;;
71464;SDS011;59274;49.874;9.154;2023-09-07T08:28:28;6.60;;;2.80;;
71464;SDS011;59274;49.874;9.154;2023-09-07T08:30:54;5.70;;;2.67;;
71464;SDS011;59274;49.874;9.154;2023-09-07T08:33:22;5.07;;;2.87;;
71464;SDS011;59274;49.874;9.154;2023-09-07T08:35:57;6.93;;;3.05;;
71464;SDS011;59274;49.874;9.154;2023-09-07T08:38:22;5.80;;;2.88;;
71464;SDS011;59274;49.874;9.154;2023-09-07T08:40:51;5.63;;;2.78;;
71464;SDS011;59274;49.874;9.154;2023-09-07T08:43:20;8.17;;;3.20;;
71464;SDS011;59274;49.874;9.154;2023-09-07T08:45:46;6.60;;;2.63;;
71464;SDS011;59274;49.874;9.154;2023-09-07T08:48:16;7.15;;;3.05;;
71464;SDS011;59274;49.874;9.154;2023-09-07T08:50:45;5.18;;;2.60;;
71464;SDS011;59274;49.874;9.154;2023-09-07T08:53:18;6.57;;;3.10;;
71464;SDS011;59274;49.874;9.154;2023-09-07T08:55:45;6.47;;;3.10;;
71464;SDS011;59274;49.874;9.154;2023-09-07T08:58:11;6.20;;;3.00;;
71464;SDS011;59274;49.874;9.154;2023-09-07T09:00:36;6.17;;;3.10;;
71464;SDS011;59274;49.874;9.154;2023-09-07T09:03:02;7.90;;;2.90;;
71464;SDS011;59274;49.874;9.154;2023-09-07T09:05:30;6.30;;;3.10;;
71464;SDS011;59274;49.874;9.154;2023-09-07T09:08:05;11.10;;;3.57;;
71464;SDS011;59274;49.874;9.154;2023-09-07T09:10:31;6.90;;;3.10;;
71464;SDS011;59274;49.874;9.154;2023-09-07T09:12:58;6.07;;;2.90;;
71464;SDS011;59274;49.874;9.154;2023-09-07T09:15:26;5.85;;;2.88;;
71464;SDS011;59274;49.874;9.154;2023-09-07T09:17:52;5.50;;;2.85;;
71464;SDS011;59274;49.874;9.154;2023-09-07T09:20:22;6.43;;;2.97;;
71464;SDS011;59274;49.874;9.154;2023-09-07T09:22:52;4.45;;;2.47;;
71464;SDS011;59274;49.874;9.154;2023-09-07T09:25:19;7.55;;;2.85;;
71464;SDS011;59274;49.874;9.154;2023-09-07T09:27:46;6.57;;;2.80;;
71464;SDS011;59274;49.874;9.154;2023-09-07T09:30:11;6.43;;;2.85;;
71464;SDS011;59274;49.874;9.154;2023-09-07T09:32:40;5.50;;;3.00;;
71464;SDS011;59274;49.874;9.154;2023-09-07T09:35:06;5.65;;;2.63;;
71464;SDS011;59274;49.874;9.154;2023-09-07T09:37:33;5.50;;;3.10;;
71464;SDS011;59274;49.874;9.154;2023-09-07T09:39:59;6.10;;;2.97;;
71464;SDS011;59274;49.874;9.154;2023-09-07T09:42:25;4.95;;;3.00;;
71464;SDS011;59274;49.874;9.154;2023-09-07T09:44:51;7.93;;;2.93;;
71464;SDS011;59274;49.874;9.154;2023-09-07T09:47:19;6.75;;;2.55;;
71464;SDS011;59274;49.874;9.154;2023-09-07T09:49:46;10.05;;;2.85;;
71464;SDS011;59274;49.874;9.154;2023-09-07T09:52:13;7.65;;;2.40;;
71464;SDS011;59274;49.874;9.154;2023-09-07T09:54:40;5.75;;;2.60;;
71464;SDS011;59274;49.874;9.154;2023-09-07T09:57:06;5.60;;;2.73;;
71464;SDS011;59274;49.874;9.154;2023-09-07T09:59:32;5.88;;;2.80;;
71464;SDS011;59274;49.874;9.154;2023-09-07T10:01:58;7.17;;;3.23;;
71464;SDS011;59274;49.874;9.154;2023-09-07T10:04:26;4.35;;;2.67;;
71464;SDS011;59274;49.874;9.154;2023-09-07T10:07:00;6.70;;;3.08;;
71464;SDS011;59274;49.874;9.154;2023-09-07T10:09:34;5.97;;;2.53;;
71464;SDS011;59274;49.874;9.154;2023-09-07T10:12:02;4.90;;;2.72;;
71464;SDS011;59274;49.874;9.154;2023-09-07T10:14:39;5.23;;;2.50;;
71464;SDS011;59274;49.874;9.154;2023-09-07T10:17:05;5.13;;;2.53;;
71464;SDS011;59274;49.874;9.154;2023-09-07T10:19:31;4.88;;;2.50;;
71464;SDS011;59274;49.874;9.154;2023-09-07T10:21:56;4.77;;;2.40;;
71464;SDS011;59274;49.874;9.154;2023-09-07T10:24:29;4.32;;;2.20;;
71464;SDS011;59274;49.874;9.154;2023-09-07T10:27:04;5.22;;;2.45;;
71464;SDS011;59274;49.874;9.154;2023-09-07T10:29:43;11.37;;;2.83;;
71464;SDS011;59274;49.874;9.154;2023-09-07T10:32:11;4.20;;;2.22;;
71464;SDS011;59274;49.874;9.154;2023-09-07T10:34:39;4.38;;;2.28;;
71464;SDS011;59274;49.874;9.154;2023-09-07T10:37:09;5.65;;;2.60;;
71464;SDS011;59274;49.874;9.154;2023-09-07T10:39:38;4.97;;;2.40;;
71464;SDS011;59274;49.874;9.154;2023-09-07T10:42:05;5.07;;;2.23;;
71464;SDS011;59274;49.874;9.154;2023-09-07T10:44:30;4.70;;;2.10;;
71464;SDS011;59274;49.874;9.154;2023-09-07T10:46:59;3.87;;;2.17;;
71464;SDS011;59274;49.874;9.154;2023-09-07T10:49:25;7.50;;;2.50;;
71464;SDS011;59274;49.874;9.154;2023-09-07T10:51:51;5.20;;;2.47;;
71464;SDS011;59274;49.874;9.154;2023-09-07T10:54:17;3.87;;;2.10;;
71464;SDS011;59274;49.874;9.154;2023-09-07T10:56:44;4.80;;;2.35;;
71464;SDS011;59274;49.874;9.154;2023-09-07T10:59:11;4.13;;;2.22;;
71464;SDS011;59274;49.874;9.154;2023-09-07T11:01:39;4.40;;;2.20;;
71464;SDS011;59274;49.874;9.154;2023-09-07T11:04:05;4.60;;;2.30;;
71464;SDS011;59274;49.874;9.154;2023-09-07T11:06:33;4.50;;;2.30;;
71464;SDS011;59274;49.874;9.154;2023-09-07T11:08:59;5.70;;;2.20;;
71464;SDS011;59274;49.874;9.154;2023-09-07T11:11:25;6.20;;;2.60;;
71464;SDS011;59274;49.874;9.154;2023-09-07T11:13:52;6.05;;;2.30;;
71464;SDS011;59274;49.874;9.154;2023-09-07T11:16:17;5.70;;;2.30;;
71464;SDS011;59274;49.874;9.154;2023-09-07T11:18:42;5.63;;;2.53;;
71464;SDS011;59274;49.874;9.154;2023-09-07T11:21:09;4.38;;;2.22;;
71464;SDS011;59274;49.874;9.154;2023-09-07T11:23:35;8.87;;;2.97;;
71464;SDS011;59274;49.874;9.154;2023-09-07T11:26:12;4.93;;;2.45;;
71464;SDS011;59274;49.874;9.154;2023-09-07T11:28:38;5.82;;;2.35;;
71464;SDS011;59274;49.874;9.154;2023-09-07T11:31:04;4.70;;;2.30;;
71464;SDS011;59274;49.874;9.154;2023-09-07T11:33:33;4.67;;;2.43;;
71464;SDS011;59274;49.874;9.154;2023-09-07T11:35:59;4.45;;;2.40;;
71464;SDS011;59274;49.874;9.154;2023-09-07T11:38:30;4.73;;;2.40;;
71464;SDS011;59274;49.874;9.154;2023-09-07T11:41:01;4.43;;;2.50;;
71464;SDS011;59274;49.874;9.154;2023-09-07T11:43:27;5.47;;;2.40;;
71464;SDS011;59274;49.874;9.154;2023-09-07T11:45:52;6.23;;;2.40;;
71464;SDS011;59274;49.874;9.154;2023-09-07T11:48:17;5.18;;;2.70;;
71464;SDS011;59274;49.874;9.154;2023-09-07T11:50:43;5.20;;;2.65;;
71464;SDS011;59274;49.874;9.154;2023-09-07T11:53:08;7.37;;;2.70;;
71464;SDS011;59274;49.874;9.154;2023-09-07T11:55:34;7.85;;;2.88;;
71464;SDS011;59274;49.874;9.154;2023-09-07T11:58:03;5.20;;;2.60;;
71464;SDS011;59274;49.874;9.154;2023-09-07T12:00:32;4.10;;;2.60;;
71464;SDS011;59274;49.874;9.154;2023-09-07T12:02:58;5.63;;;2.90;;
71464;SDS011;59274;49.874;9.154;2023-09-07T12:05:24;4.85;;;2.55;;
71464;SDS011;59274;49.874;9.154;2023-09-07T12:07:49;4.72;;;2.63;;
71464;SDS011;59274;49.874;9.154;2023-09-07T12:10:15;7.17;;;2.60;;
71464;SDS011;59274;49.874;9.154;2023-09-07T12:12:40;6.27;;;2.60;;
71464;SDS011;59274;49.874;9.154;2023-09-07T12:15:06;5.40;;;2.63;;
71464;SDS011;59274;49.874;9.154;2023-09-07T12:17:33;5.05;;;2.50;;
71464;SDS011;59274;49.874;9.154;2023-09-07T12:19:59;5.05;;;2.35;;
71464;SDS011;59274;49.874;9.154;2023-09-07T12:22:25;6.53;;;2.28;;
71464;SDS011;59274;49.874;9.154;2023-09-07T12:24:51;4.45;;;2.20;;
71464;SDS011;59274;49.874;9.154;2023-09-07T12:27:16;4.97;;;2.40;;
71464;SDS011;59274;49.874;9.154;2023-09-07T12:29:43;5.18;;;2.63;;
71464;SDS011;59274;49.874;9.154;2023-09-07T12:32:08;4.30;;;2.50;;
71464;SDS011;59274;49.874;9.154;2023-09-07T12:34:34;5.37;;;2.50;;
71464;SDS011;59274;49.874;9.154;2023-09-07T12:36:59;4.43;;;2.30;;
71464;SDS011;59274;49.874;9.154;2023-09-07T12:39:25;6.18;;;2.35;;
71464;SDS011;59274;49.874;9.154;2023-09-07T12:41:50;7.70;;;2.70;;
71464;SDS011;59274;49.874;9.154;2023-09-07T12:44:16;5.43;;;2.33;;
71464;SDS011;59274;49.874;9.154;2023-09-07T12:46:43;5.10;;;2.58;;
71464;SDS011;59274;49.874;9.154;2023-09-07T12:49:09;6.72;;;3.00;;
71464;SDS011;59274;49.874;9.154;2023-09-07T12:51:35;8.23;;;2.47;;
71464;SDS011;59274;49.874;9.154;2023-09-07T12:54:00;4.53;;;2.55;;
71464;SDS011;59274;49.874;9.154;2023-09-07T12:56:25;4.03;;;2.17;;
71464;SDS011;59274;49.874;9.154;2023-09-07T12:58:51;5.43;;;2.73;;
71464;SDS011;59274;49.874;9.154;2023-09-07T13:01:17;4.00;;;2.38;;
71464;SDS011;59274;49.874;9.154;2023-09-07T13:03:43;4.97;;;2.43;;
71464;SDS011;59274;49.874;9.154;2023-09-07T13:06:09;7.00;;;2.80;;
71464;SDS011;59274;49.874;9.154;2023-09-07T13:08:34;4.80;;;2.80;;
71464;SDS011;59274;49.874;9.154;2023-09-07T13:11:00;5.65;;;2.53;;
71464;SDS011;59274;49.874;9.154;2023-09-07T13:13:27;5.85;;;2.53;;
71464;SDS011;59274;49.874;9.154;2023-09-07T13:15:57;4.30;;;2.40;;
71464;SDS011;59274;49.874;9.154;2023-09-07T13:18:23;4.22;;;2.53;;
71464;SDS011;59274;49.874;9.154;2023-09-07T13:20:49;4.45;;;2.20;;
71464;SDS011;59274;49.874;9.154;2023-09-07T13:23:17;3.92;;;2.50;;
71464;SDS011;59274;49.874;9.154;2023-09-07T13:25:43;4.70;;;2.25;;
71464;SDS011;59274;49.874;9.154;2023-09-07T13:28:08;3.93;;;2.20;;
71464;SDS011;59274;49.874;9.154;2023-09-07T13:30:34;5.17;;;2.47;;
71464;SDS011;59274;49.874;9.154;2023-09-07T13:32:59;4.93;;;2.47;;
71464;SDS011;59274;49.874;9.154;2023-09-07T13:35:25;3.90;;;2.23;;
71464;SDS011;59274;49.874;9.154;2023-09-07T13:37:51;5.60;;;2.50;;
71464;SDS011;59274;49.874;9.154;2023-09-07T13:40:17;5.40;;;2.35;;
71464;SDS011;59274;49.874;9.154;2023-09-07T13:42:44;5.50;;;2.80;;
71464;SDS011;59274;49.874;9.154;2023-09-07T13:45:12;4.90;;;2.53;;
71464;SDS011;59274;49.874;9.154;2023-09-07T13:47:41;4.95;;;2.50;;
71464;SDS011;59274;49.874;9.154;2023-09-07T13:50:06;5.93;;;2.40;;
71464;SDS011;59274;49.874;9.154;2023-09-07T13:52:32;5.40;;;2.40;;
71464;SDS011;59274;49.874;9.154;2023-09-07T13:54:57;4.35;;;2.38;;
71464;SDS011;59274;49.874;9.154;2023-09-07T13:57:23;4.67;;;2.60;;
71464;SDS011;59274;49.874;9.154;2023-09-07T13:59:48;4.83;;;2.60;;
71464;SDS011;59274;49.874;9.154;2023-09-07T14:02:14;4.50;;;2.40;;
71464;SDS011;59274;49.874;9.154;2023-09-07T14:04:39;4.40;;;2.63;;
71464;SDS011;59274;49.874;9.154;2023-09-07T14:07:05;4.03;;;2.40;;
71464;SDS011;59274;49.874;9.154;2023-09-07T14:09:30;4.70;;;2.60;;
71464;SDS011;59274;49.874;9.154;2023-09-07T14:11:56;5.22;;;2.35;;
71464;SDS011;59274;49.874;9.154;2023-09-07T14:14:21;5.57;;;2.70;;
71464;SDS011;59274;49.874;9.154;2023-09-07T14:16:47;3.97;;;2.40;;
71464;SDS011;59274;49.874;9.154;2023-09-07T14:19:12;4.55;;;2.67;;
71464;SDS011;59274;49.874;9.154;2023-09-07T14:21:38;4.37;;;2.50;;
71464;SDS011;59274;49.874;9.154;2023-09-07T14:24:03;5.27;;;2.60;;
71464;SDS011;59274;49.874;9.154;2023-09-07T14:26:29;5.85;;;2.67;;
71464;SDS011;59274;49.874;9.154;2023-09-07T14:28:55;6.20;;;2.70;;
71464;SDS011;59274;49.874;9.154;2023-09-07T14:31:20;5.13;;;2.57;;
71464;SDS011;59274;49.874;9.154;2023-09-07T14:33:46;3.85;;;2.60;;
71464;SDS011;59274;49.874;9.154;2023-09-07T14:36:11;3.90;;;2.47;;
71464;SDS011;59274;49.874;9.154;2023-09-07T14:38:37;4.10;;;2.72;;
71464;SDS011;59274;49.874;9.154;2023-09-07T14:41:06;4.03;;;2.67;;
71464;SDS011;59274;49.874;9.154;2023-09-07T14:43:36;4.97;;;2.63;;